Van Horn, Texas
Current Conditions -  °F | °C
As of 2:51 AM on Sunday 21 Dec 2014 (Local Time) from KGDP Reporting Station
Clear Clear  
Wind Chill: -2°   Ceiling: Unl
Heat Index:   Visibility: 10mi
Dew Point: -6°   Wind: 12mph
Humidity: 57%   Direction: 240°WSW
Pressure: 30.04"   Gusts: NA
Location:  31.04°N, 104.83°W
Report Text: KGDP 210851Z AUTO 24010KT 10SM CLR 02/M06 A3004 RMK AO2 SLP150 T00221056 58013
Loading
Personal Weather Stations






























Interactive Weather Map New forecast layout! Learn more

10-Day Weather Forecast

Advertisements
Track Severe Weather on mobile